createdAt,value
2019-03-22T00:02:09.733Z,8.50
2019-03-22T00:07:12.823Z,8.50
2019-03-22T00:12:15.914Z,8.50
2019-03-22T00:17:19.125Z,8.50
2019-03-22T00:22:22.253Z,8.50
2019-03-22T00:27:25.325Z,8.50
2019-03-22T00:32:28.451Z,8.60
2019-03-22T00:37:31.541Z,8.60
2019-03-22T00:42:34.617Z,8.60
2019-03-22T00:47:37.704Z,8.60
2019-03-22T00:52:40.774Z,8.60
2019-03-22T00:57:43.870Z,8.50
2019-03-22T01:02:46.967Z,8.50
2019-03-22T01:07:50.085Z,8.50
2019-03-22T01:12:53.225Z,8.50
2019-03-22T01:17:56.328Z,8.40
2019-03-22T01:22:59.413Z,8.40
2019-03-22T01:28:02.497Z,8.40
2019-03-22T01:33:05.569Z,8.40
2019-03-22T01:38:08.638Z,8.40
2019-03-22T01:43:11.772Z,8.40
2019-03-22T01:48:14.864Z,8.40
2019-03-22T01:53:17.954Z,8.40
2019-03-22T01:58:21.029Z,8.40
2019-03-22T02:03:24.145Z,8.30
2019-03-22T02:08:27.233Z,8.30
2019-03-22T02:13:30.333Z,8.30
2019-03-22T02:18:33.490Z,8.30
2019-03-22T02:23:36.569Z,8.30
2019-03-22T02:28:40.657Z,8.30
2019-03-22T02:33:43.721Z,8.30
2019-03-22T02:38:46.789Z,8.30
2019-03-22T02:43:49.883Z,8.20
2019-03-22T02:48:52.958Z,8.30
2019-03-22T02:53:56.090Z,8.30
2019-03-22T02:58:59.521Z,8.30
2019-03-22T03:04:02.747Z,8.30
2019-03-22T03:09:06.078Z,8.20
2019-03-22T03:14:09.741Z,8.20
2019-03-22T03:19:12.872Z,8.20
2019-03-22T03:24:15.995Z,8.30
2019-03-22T03:29:19.069Z,8.30
2019-03-22T03:34:22.152Z,8.30
2019-03-22T03:39:25.216Z,8.30
2019-03-22T03:44:28.288Z,8.30
2019-03-22T03:49:31.386Z,8.40
2019-03-22T03:54:34.470Z,8.40
2019-03-22T03:59:37.560Z,8.40
2019-03-22T04:04:40.662Z,8.40
2019-03-22T04:09:43.739Z,8.40
2019-03-22T04:14:46.830Z,8.40
2019-03-22T04:19:49.930Z,8.40
2019-03-22T04:24:53.050Z,8.40
2019-03-22T04:29:56.129Z,8.40
2019-03-22T04:34:59.209Z,8.40
2019-03-22T04:40:02.286Z,8.40
2019-03-22T04:45:05.848Z,8.40
2019-03-22T04:50:08.924Z,8.50
2019-03-22T04:55:13.822Z,8.50
2019-03-22T05:00:17.510Z,8.50
2019-03-22T05:05:21.184Z,8.50
2019-03-22T05:10:25.290Z,8.50
2019-03-22T05:15:30.273Z,8.50
2019-03-22T05:20:35.270Z,8.50
2019-03-22T05:25:38.985Z,8.40
2019-03-22T05:31:21.703Z,8.40
2019-03-22T05:36:24.785Z,8.40
2019-03-22T05:41:27.984Z,8.40
2019-03-22T05:46:31.045Z,8.40
2019-03-22T05:51:34.186Z,8.40
2019-03-22T05:56:37.297Z,8.40
2019-03-22T06:01:40.371Z,8.40
2019-03-22T06:06:43.442Z,8.30
2019-03-22T06:11:46.549Z,8.40
2019-03-22T06:16:49.641Z,8.40
2019-03-22T06:21:52.727Z,8.40
2019-03-22T06:26:55.863Z,8.50
2019-03-22T06:31:58.949Z,8.50
2019-03-22T06:37:03.083Z,8.50
2019-03-22T06:42:06.162Z,8.60
2019-03-22T06:47:11.131Z,8.60
2019-03-22T06:52:14.138Z,8.60
2019-03-22T06:57:17.242Z,8.70
2019-03-22T07:02:20.309Z,8.80
2019-03-22T07:07:23.383Z,8.80
2019-03-22T07:12:26.493Z,8.90
2019-03-22T07:17:29.622Z,9.00
2019-03-22T07:22:32.738Z,9.00
2019-03-22T07:27:35.811Z,9.10
2019-03-22T07:32:38.917Z,9.20
2019-03-22T07:37:42.018Z,9.30
2019-03-22T07:42:45.110Z,9.30
2019-03-22T07:47:48.227Z,9.40
2019-03-22T07:52:51.316Z,9.50
2019-03-22T07:57:54.404Z,9.60
2019-03-22T08:02:57.497Z,9.80
2019-03-22T08:08:00.614Z,9.90
2019-03-22T08:13:03.716Z,10.10
2019-03-22T08:18:06.863Z,10.20
2019-03-22T08:23:18.387Z,10.40
2019-03-22T08:28:21.505Z,10.40
2019-03-22T08:33:24.691Z,10.50
2019-03-22T08:38:27.821Z,10.60
2019-03-22T08:43:30.876Z,10.80
2019-03-22T08:48:33.936Z,11.00
2019-03-22T08:53:37.037Z,11.30
2019-03-22T08:58:40.115Z,11.40
2019-03-22T09:03:43.205Z,11.30
2019-03-22T09:08:47.912Z,11.50
2019-03-22T09:13:53.671Z,11.70
2019-03-22T09:18:56.136Z,11.90
2019-03-22T09:23:59.249Z,12.00
2019-03-22T09:29:02.331Z,12.20
2019-03-22T09:34:05.416Z,12.40
2019-03-22T09:39:08.555Z,12.70
2019-03-22T09:44:11.621Z,12.80
2019-03-22T09:49:14.706Z,12.80
2019-03-22T09:54:17.817Z,12.90
2019-03-22T09:59:20.895Z,13.30
2019-03-22T10:04:24.029Z,13.40
2019-03-22T10:09:27.094Z,13.40
2019-03-22T10:14:31.430Z,13.60
2019-03-22T10:19:34.746Z,13.60
2019-03-22T10:24:37.856Z,13.70
2019-03-22T10:29:40.933Z,13.80
2019-03-22T10:34:44.031Z,14.00
2019-03-22T10:39:47.131Z,14.10
2019-03-22T10:44:50.213Z,14.30
2019-03-22T10:49:53.454Z,14.50
2019-03-22T10:54:56.632Z,14.80
2019-03-22T10:59:59.671Z,15.00
2019-03-22T11:05:02.780Z,15.10
2019-03-22T11:10:07.845Z,15.20
2019-03-22T11:15:11.902Z,15.20
2019-03-22T11:20:15.360Z,15.30
2019-03-22T11:25:18.444Z,15.40
2019-03-22T11:30:21.517Z,15.50
2019-03-22T11:35:24.613Z,15.60
2019-03-22T11:40:27.677Z,15.80
2019-03-22T11:45:30.857Z,16.00
2019-03-22T11:50:34.408Z,16.10
2019-03-22T11:55:37.600Z,16.10
2019-03-22T12:00:40.728Z,16.20
2019-03-22T12:05:43.925Z,16.40
2019-03-22T12:10:47.011Z,16.50
2019-03-22T12:15:50.315Z,16.60
2019-03-22T12:20:53.378Z,16.70
2019-03-22T12:25:56.464Z,16.90
2019-03-22T12:30:59.650Z,17.00
2019-03-22T12:36:02.733Z,17.10
2019-03-22T12:41:05.843Z,17.20
2019-03-22T12:46:08.929Z,17.20
2019-03-22T12:51:12.017Z,17.20
2019-03-22T12:56:15.153Z,17.30
2019-03-22T13:01:18.241Z,17.40
2019-03-22T13:06:21.334Z,17.60
2019-03-22T13:11:24.406Z,17.70
2019-03-22T13:16:27.536Z,17.80
2019-03-22T13:21:30.644Z,17.90
2019-03-22T13:26:33.741Z,18.00
2019-03-22T13:31:36.824Z,18.10
2019-03-22T13:36:39.890Z,18.00
2019-03-22T13:41:43.004Z,18.20
2019-03-22T13:46:46.113Z,18.30
2019-03-22T13:51:50.074Z,18.30
2019-03-22T13:56:53.173Z,18.50
2019-03-22T14:01:56.265Z,18.60
2019-03-22T14:06:59.361Z,18.60
2019-03-22T14:12:02.456Z,18.60
2019-03-22T14:17:05.591Z,18.70
2019-03-22T14:22:08.713Z,18.80
2019-03-22T14:27:11.781Z,19.00
2019-03-22T14:32:14.870Z,19.00
2019-03-22T14:37:17.983Z,18.80
2019-03-22T14:42:21.086Z,18.80
2019-03-22T14:47:24.200Z,19.00
2019-03-22T14:52:27.326Z,19.00
2019-03-22T14:57:30.437Z,19.10
2019-03-22T15:02:33.524Z,19.00
2019-03-22T15:07:36.646Z,19.10
2019-03-22T15:12:39.741Z,19.30
2019-03-22T15:18:08.457Z,20.20
2019-03-22T15:23:44.701Z,22.80
2019-03-22T15:29:16.390Z,24.90
2019-03-22T15:34:48.076Z,25.80
2019-03-22T15:40:08.872Z,26.00
2019-03-22T15:45:13.057Z,26.30
2019-03-22T15:50:16.291Z,26.90
2019-03-22T15:55:19.502Z,27.70
2019-03-22T16:00:23.889Z,27.50
2019-03-22T16:05:26.997Z,27.20
2019-03-22T16:10:30.081Z,26.70
2019-03-22T16:15:33.164Z,26.50
2019-03-22T16:20:36.253Z,26.30
2019-03-22T16:25:39.414Z,25.10
2019-03-22T16:30:42.520Z,23.80
2019-03-22T16:35:45.607Z,22.70
2019-03-22T16:40:48.677Z,21.90
2019-03-22T16:45:51.777Z,21.10
2019-03-22T16:50:54.860Z,21.10
2019-03-22T16:55:57.942Z,21.00
2019-03-22T17:01:01.021Z,20.40
2019-03-22T17:06:04.242Z,19.70
2019-03-22T17:11:07.344Z,19.10
2019-03-22T17:16:10.420Z,18.80
2019-03-22T17:21:13.645Z,18.50
2019-03-22T17:26:16.741Z,17.70
2019-03-22T17:31:19.804Z,16.90
2019-03-22T17:36:22.969Z,16.10
2019-03-22T17:41:26.065Z,15.50
2019-03-22T17:46:29.133Z,15.00
2019-03-22T17:51:32.239Z,14.50
2019-03-22T17:56:35.304Z,14.10
2019-03-22T18:01:38.385Z,13.70
2019-03-22T18:06:42.552Z,13.30
2019-03-22T18:11:45.646Z,13.00
2019-03-22T18:16:48.735Z,12.80
2019-03-22T18:21:51.813Z,12.50
2019-03-22T18:26:54.887Z,12.40
2019-03-22T18:31:57.989Z,12.10
2019-03-22T18:37:01.093Z,11.90
2019-03-22T18:42:04.301Z,11.70
2019-03-22T18:47:07.383Z,11.50
2019-03-22T18:52:10.474Z,11.40
2019-03-22T18:57:13.594Z,11.20
2019-03-22T19:02:16.690Z,11.10
2019-03-22T19:07:19.780Z,11.00
2019-03-22T19:12:22.902Z,10.80
2019-03-22T19:17:26.013Z,10.70
2019-03-22T19:22:29.125Z,10.60
2019-03-22T19:27:32.236Z,10.50
2019-03-22T19:32:35.326Z,10.30
2019-03-22T19:37:38.358Z,10.10
2019-03-22T19:42:41.437Z,9.90
2019-03-22T19:47:44.490Z,9.80
2019-03-22T19:52:47.523Z,9.70
2019-03-22T19:57:50.600Z,9.70
2019-03-22T20:02:53.647Z,9.70
2019-03-22T20:07:56.869Z,9.50
2019-03-22T20:12:59.925Z,9.50
2019-03-22T20:18:02.963Z,9.40
2019-03-22T20:23:06.025Z,9.30
2019-03-22T20:28:09.054Z,9.30
2019-03-22T20:33:12.084Z,9.20
2019-03-22T20:38:15.123Z,9.30
2019-03-22T20:43:18.198Z,9.60
2019-03-22T20:48:21.236Z,9.90
2019-03-22T20:53:24.267Z,10.00
2019-03-22T20:58:27.303Z,10.00
2019-03-22T21:03:30.350Z,10.00
2019-03-22T21:08:34.408Z,9.70
2019-03-22T21:13:37.427Z,9.60
2019-03-22T21:18:40.519Z,9.30
2019-03-22T21:23:43.594Z,9.30
2019-03-22T21:28:46.753Z,9.20
2019-03-22T21:33:49.855Z,9.20
2019-03-22T21:38:52.899Z,9.10
2019-03-22T21:43:55.945Z,8.90
2019-03-22T21:48:58.987Z,8.70
2019-03-22T21:54:02.054Z,8.50
2019-03-22T21:59:05.108Z,7.90
2019-03-22T22:04:08.136Z,7.30
2019-03-22T22:09:11.191Z,6.90
2019-03-22T22:14:14.252Z,6.90
2019-03-22T22:19:17.303Z,6.90
2019-03-22T22:24:20.467Z,6.90
2019-03-22T22:29:23.533Z,6.80
2019-03-22T22:34:26.588Z,6.80
2019-03-22T22:39:29.692Z,6.60
2019-03-22T22:44:32.776Z,6.60
2019-03-22T22:49:35.847Z,6.70
2019-03-22T22:54:38.901Z,6.80
2019-03-22T22:59:42.004Z,6.90
2019-03-22T23:04:45.059Z,7.00
2019-03-22T23:09:48.319Z,7.10
2019-03-22T23:14:51.686Z,7.20
2019-03-22T23:19:54.824Z,7.20
2019-03-22T23:24:58.016Z,7.10
2019-03-22T23:30:01.040Z,7.00
2019-03-22T23:35:09.312Z,7.00
2019-03-22T23:40:13.822Z,6.90
2019-03-22T23:45:17.054Z,7.00
2019-03-22T23:50:24.342Z,6.90
2019-03-22T23:55:27.543Z,6.70
